createdAt,value
2022-07-30T00:00:32.480Z,4.05
2022-07-30T00:02:59.868Z,4.50
2022-07-30T00:05:27.046Z,4.00
2022-07-30T00:07:54.404Z,4.35
2022-07-30T00:10:23.084Z,4.82
2022-07-30T00:12:55.196Z,5.35
2022-07-30T00:15:22.521Z,5.15
2022-07-30T00:17:49.749Z,5.32
2022-07-30T00:20:17.505Z,4.88
2022-07-30T00:22:46.017Z,5.65
2022-07-30T00:25:13.520Z,6.00
2022-07-30T00:27:44.398Z,5.28
2022-07-30T00:30:12.506Z,5.72
2022-07-30T00:32:40.012Z,5.68
2022-07-30T00:35:07.801Z,6.13
2022-07-30T00:37:35.067Z,6.03
2022-07-30T00:40:02.315Z,5.63
2022-07-30T00:42:44.888Z,6.22
2022-07-30T00:45:13.335Z,6.25
2022-07-30T00:47:41.348Z,6.72
2022-07-30T00:50:10.870Z,6.10
2022-07-30T00:52:41.288Z,6.03
2022-07-30T00:55:10.626Z,5.90
2022-07-30T00:57:39.353Z,6.20
2022-07-30T01:00:10.091Z,6.10
2022-07-30T01:02:37.485Z,6.68
2022-07-30T01:05:05.483Z,6.57
2022-07-30T01:07:32.957Z,6.55
2022-07-30T01:10:00.142Z,6.93
2022-07-30T01:12:28.108Z,7.15
2022-07-30T01:14:59.800Z,7.47
2022-07-30T01:17:27.080Z,7.80
2022-07-30T01:20:06.150Z,7.30
2022-07-30T01:22:52.070Z,7.82
2022-07-30T01:25:29.223Z,8.20
2022-07-30T01:28:07.368Z,8.18
2022-07-30T01:30:39.892Z,8.75
2022-07-30T01:33:11.050Z,8.20
2022-07-30T01:35:44.216Z,8.43
2022-07-30T01:38:16.652Z,8.18
2022-07-30T01:40:45.911Z,7.90
2022-07-30T01:43:16.028Z,8.82
2022-07-30T01:45:48.298Z,7.72
2022-07-30T01:48:22.071Z,7.90
2022-07-30T01:51:00.685Z,8.15
2022-07-30T01:53:31.219Z,7.70
2022-07-30T01:56:00.289Z,7.45
2022-07-30T01:58:34.084Z,7.25
2022-07-30T02:01:01.871Z,6.70
2022-07-30T02:03:32.091Z,7.38
2022-07-30T02:06:15.883Z,7.05
2022-07-30T02:08:51.211Z,6.80
2022-07-30T02:11:37.672Z,7.13
2022-07-30T02:14:14.409Z,7.13
2022-07-30T02:16:46.827Z,7.75
2022-07-30T02:19:19.510Z,7.10
2022-07-30T02:21:52.667Z,6.60
2022-07-30T02:24:30.646Z,6.68
2022-07-30T02:27:07.373Z,7.35
2022-07-30T02:29:38.551Z,6.53
2022-07-30T02:32:10.689Z,6.95
2022-07-30T02:34:40.263Z,6.45
2022-07-30T02:37:12.466Z,7.38
2022-07-30T02:39:41.750Z,7.78
2022-07-30T02:42:11.820Z,7.03
2022-07-30T02:44:42.451Z,6.65
2022-07-30T02:47:11.562Z,7.35
2022-07-30T02:49:42.813Z,6.43
2022-07-30T02:52:13.991Z,7.30
2022-07-30T02:54:43.163Z,7.65
2022-07-30T02:57:11.541Z,6.68
2022-07-30T02:59:41.252Z,7.43
2022-07-30T03:02:14.723Z,7.22
2022-07-30T03:04:43.332Z,7.40
2022-07-30T03:07:12.217Z,7.85
2022-07-30T03:09:52.282Z,7.03
2022-07-30T03:12:23.891Z,7.03
2022-07-30T03:14:53.937Z,8.18
2022-07-30T03:17:23.798Z,8.63
2022-07-30T03:19:52.533Z,8.18
2022-07-30T03:22:21.276Z,7.95
2022-07-30T03:24:50.510Z,8.00
2022-07-30T03:27:19.092Z,7.68
2022-07-30T03:29:48.702Z,7.68
2022-07-30T03:32:16.575Z,8.27
2022-07-30T03:34:48.845Z,7.05
2022-07-30T03:37:21.683Z,8.77
2022-07-30T03:39:49.179Z,7.97
2022-07-30T03:42:16.897Z,8.20
2022-07-30T03:44:46.598Z,7.80
2022-07-30T03:47:17.589Z,7.82
2022-07-30T03:49:49.412Z,8.25
2022-07-30T03:52:18.526Z,7.55
2022-07-30T03:54:47.558Z,8.07
2022-07-30T03:57:20.362Z,7.65
2022-07-30T03:59:48.287Z,8.35
2022-07-30T04:02:15.814Z,7.85
2022-07-30T04:04:46.099Z,7.80
2022-07-30T04:07:18.047Z,8.38
2022-07-30T04:09:47.754Z,8.25
2022-07-30T04:12:15.007Z,8.38
2022-07-30T04:14:45.564Z,8.48
2022-07-30T04:17:24.610Z,7.20
2022-07-30T04:19:56.477Z,7.95
2022-07-30T04:22:34.310Z,8.73
2022-07-30T04:25:02.810Z,8.45
2022-07-30T04:27:31.776Z,8.60
2022-07-30T04:29:59.854Z,8.32
2022-07-30T04:32:27.733Z,7.97
2022-07-30T04:34:59.410Z,8.70
2022-07-30T04:37:29.116Z,8.30
2022-07-30T04:39:57.786Z,8.55
2022-07-30T04:42:27.470Z,8.63
2022-07-30T04:44:55.453Z,9.10
2022-07-30T04:47:25.597Z,7.82
2022-07-30T04:49:56.027Z,8.75
2022-07-30T04:52:27.069Z,8.40
2022-07-30T04:55:02.265Z,8.98
2022-07-30T04:57:31.640Z,8.45
2022-07-30T05:00:01.627Z,8.63
2022-07-30T05:02:30.815Z,8.25
2022-07-30T05:05:01.454Z,8.35
2022-07-30T05:07:31.753Z,8.80
2022-07-30T05:09:59.591Z,9.02
2022-07-30T05:12:40.757Z,8.77
2022-07-30T05:15:11.833Z,8.63
2022-07-30T05:17:41.493Z,8.32
2022-07-30T05:20:09.727Z,8.73
2022-07-30T05:22:36.921Z,7.60
2022-07-30T05:25:15.997Z,7.47
2022-07-30T05:27:45.839Z,7.55
2022-07-30T05:30:15.785Z,7.35
2022-07-30T05:32:43.962Z,7.40
2022-07-30T05:35:18.953Z,6.82
2022-07-30T05:37:51.194Z,7.30
2022-07-30T05:40:18.436Z,6.18
2022-07-30T05:42:46.130Z,6.75
2022-07-30T05:45:15.702Z,6.78
2022-07-30T05:47:43.005Z,7.40
2022-07-30T05:50:12.809Z,6.85
2022-07-30T05:52:42.495Z,6.50
2022-07-30T05:55:09.984Z,7.13
2022-07-30T05:57:42.191Z,6.72
2022-07-30T06:00:11.124Z,7.15
2022-07-30T06:02:40.976Z,7.93
2022-07-30T06:05:10.677Z,7.65
2022-07-30T06:07:40.402Z,6.80
2022-07-30T06:10:15.004Z,6.47
2022-07-30T06:12:42.608Z,7.15
2022-07-30T06:15:11.200Z,7.60
2022-07-30T06:17:43.290Z,6.75
2022-07-30T06:20:16.064Z,6.55
2022-07-30T06:22:43.406Z,6.32
2022-07-30T06:25:13.210Z,6.28
2022-07-30T06:27:48.123Z,6.80
2022-07-30T06:30:15.493Z,7.07
2022-07-30T06:32:45.741Z,6.18
2022-07-30T06:35:20.432Z,7.28
2022-07-30T06:37:58.702Z,7.85
2022-07-30T06:40:37.283Z,7.43
2022-07-30T06:43:04.446Z,7.72
2022-07-30T06:45:31.751Z,8.52
2022-07-30T06:48:01.216Z,8.27
2022-07-30T06:50:30.916Z,8.10
2022-07-30T06:53:02.687Z,8.75
2022-07-30T06:55:32.158Z,9.43
2022-07-30T06:58:03.902Z,8.80
2022-07-30T07:00:33.568Z,8.77
2022-07-30T07:03:00.784Z,9.20
2022-07-30T07:05:30.683Z,9.23
2022-07-30T07:07:59.554Z,8.52
2022-07-30T07:10:28.044Z,8.55
2022-07-30T07:12:55.966Z,6.68
2022-07-30T07:15:37.374Z,6.40
2022-07-30T07:18:05.275Z,6.50
2022-07-30T07:20:33.323Z,6.75
2022-07-30T07:23:03.167Z,6.75
2022-07-30T07:25:36.893Z,6.63
2022-07-30T07:28:12.238Z,6.47
2022-07-30T07:30:44.335Z,5.95
2022-07-30T07:33:12.635Z,6.18
2022-07-30T07:35:49.658Z,5.60
2022-07-30T07:38:20.400Z,5.63
2022-07-30T07:40:54.391Z,5.47
2022-07-30T07:43:21.633Z,4.82
2022-07-30T07:45:51.245Z,4.80
2022-07-30T07:48:19.431Z,5.50
2022-07-30T07:50:49.117Z,5.30
2022-07-30T07:53:16.457Z,4.88
2022-07-30T07:55:43.656Z,4.82
2022-07-30T07:58:20.824Z,3.50
2022-07-30T08:00:56.347Z,3.92
2022-07-30T08:03:23.793Z,3.75
2022-07-30T08:06:02.003Z,4.18
2022-07-30T08:08:33.397Z,3.53
2022-07-30T08:11:00.653Z,3.85
2022-07-30T08:13:52.932Z,3.83
2022-07-30T08:16:18.305Z,3.60
2022-07-30T08:18:50.104Z,3.00
2022-07-30T08:21:17.401Z,2.60
2022-07-30T08:23:44.703Z,2.38
2022-07-30T08:26:12.025Z,2.40
2022-07-30T08:28:43.180Z,1.92
2022-07-30T08:31:15.471Z,1.98
2022-07-30T08:33:42.750Z,2.05
2022-07-30T08:36:10.311Z,2.05
2022-07-30T08:38:38.904Z,2.30
2022-07-30T08:41:08.693Z,2.10
2022-07-30T08:43:39.623Z,1.95
2022-07-30T08:46:10.410Z,2.20
2022-07-30T08:48:43.456Z,2.40
2022-07-30T08:51:15.261Z,2.30
2022-07-30T08:53:45.765Z,1.95
2022-07-30T08:56:15.294Z,2.15
2022-07-30T08:58:42.734Z,2.15
2022-07-30T09:01:10.011Z,1.85
2022-07-30T09:03:43.963Z,1.70
2022-07-30T09:06:11.842Z,1.80
2022-07-30T09:08:39.449Z,1.80
2022-07-30T09:11:09.212Z,2.00
2022-07-30T09:13:39.113Z,2.05
2022-07-30T09:16:06.753Z,1.60
2022-07-30T09:18:39.741Z,1.58
2022-07-30T09:21:31.530Z,2.17
2022-07-30T09:24:02.248Z,1.63
2022-07-30T09:26:35.482Z,1.98
2022-07-30T09:29:17.010Z,1.73
2022-07-30T09:32:05.852Z,1.70
2022-07-30T09:34:35.997Z,1.73
2022-07-30T09:37:16.635Z,1.63
2022-07-30T09:39:59.375Z,1.50
2022-07-30T09:42:32.041Z,1.77
2022-07-30T09:45:07.357Z,1.98
2022-07-30T09:47:38.586Z,1.60
2022-07-30T09:50:11.223Z,1.50
2022-07-30T09:52:43.990Z,1.10
2022-07-30T09:55:13.196Z,1.20
2022-07-30T09:57:57.768Z,1.50
2022-07-30T10:00:28.439Z,1.55
2022-07-30T10:03:00.694Z,1.40
2022-07-30T10:05:48.985Z,1.30
2022-07-30T10:08:16.666Z,1.40
2022-07-30T10:10:50.716Z,1.27
2022-07-30T10:13:22.246Z,1.35
2022-07-30T10:15:52.390Z,1.40
2022-07-30T10:18:20.041Z,1.38
2022-07-30T10:20:49.044Z,1.20
2022-07-30T10:23:18.378Z,1.23
2022-07-30T10:25:55.331Z,1.40
2022-07-30T10:28:28.802Z,1.40
2022-07-30T10:30:58.652Z,1.50
2022-07-30T10:33:35.200Z,1.45
2022-07-30T10:36:11.079Z,1.20
2022-07-30T10:38:43.235Z,1.40
2022-07-30T10:41:44.495Z,1.50
2022-07-30T10:44:37.001Z,1.30
2022-07-30T10:47:09.332Z,1.10
2022-07-30T10:49:43.164Z,1.30
2022-07-30T10:52:13.808Z,1.30
2022-07-30T10:54:44.623Z,1.30
2022-07-30T10:57:22.645Z,1.40
2022-07-30T11:00:04.066Z,1.30
2022-07-30T11:02:35.911Z,1.25
2022-07-30T11:05:44.066Z,1.33
2022-07-30T11:08:31.788Z,1.15
2022-07-30T11:11:16.287Z,1.20
2022-07-30T11:13:57.386Z,1.15
2022-07-30T11:16:37.029Z,1.30
2022-07-30T11:19:54.874Z,1.27
2022-07-30T11:22:29.011Z,1.17
2022-07-30T11:24:59.477Z,1.50
2022-07-30T11:27:46.816Z,1.25
2022-07-30T11:30:20.710Z,1.05
2022-07-30T11:32:56.292Z,1.30
2022-07-30T11:35:34.459Z,0.90
2022-07-30T11:38:22.227Z,1.38
2022-07-30T11:40:49.753Z,1.30
2022-07-30T11:43:35.522Z,1.27
2022-07-30T11:46:18.058Z,1.40
2022-07-30T11:49:01.377Z,1.20
2022-07-30T11:51:31.513Z,1.30
2022-07-30T11:54:08.543Z,1.25
2022-07-30T11:56:50.376Z,1.25
2022-07-30T11:59:17.780Z,1.20
2022-07-30T12:02:01.854Z,1.25
2022-07-30T12:04:29.979Z,1.10
2022-07-30T12:06:57.329Z,1.40
2022-07-30T12:09:32.127Z,1.00
2022-07-30T12:12:02.339Z,1.17
2022-07-30T12:14:39.952Z,1.20
2022-07-30T12:17:15.088Z,1.10
2022-07-30T12:19:47.366Z,1.20
2022-07-30T12:22:18.436Z,1.40
2022-07-30T12:24:45.754Z,1.08
2022-07-30T12:27:17.443Z,1.20
2022-07-30T12:29:47.192Z,1.25
2022-07-30T12:32:16.910Z,1.27
2022-07-30T12:34:56.214Z,1.38
2022-07-30T12:37:24.118Z,1.17
2022-07-30T12:40:14.923Z,1.40
2022-07-30T12:42:54.806Z,1.33
2022-07-30T12:45:51.791Z,1.27
2022-07-30T12:48:25.542Z,1.00
2022-07-30T12:51:10.876Z,1.10
2022-07-30T12:53:38.124Z,1.05
2022-07-30T12:56:17.050Z,1.38
2022-07-30T12:58:44.782Z,1.10
2022-07-30T13:01:13.584Z,1.25
2022-07-30T13:03:45.406Z,1.30
2022-07-30T13:06:25.606Z,1.20
2022-07-30T13:08:58.111Z,1.00
2022-07-30T13:11:40.184Z,1.13
2022-07-30T13:14:08.172Z,1.40
2022-07-30T13:16:38.606Z,1.40
2022-07-30T13:19:13.562Z,1.38
2022-07-30T13:21:49.485Z,1.50
2022-07-30T13:24:20.061Z,1.45
2022-07-30T13:26:51.597Z,1.20
2022-07-30T13:29:20.904Z,1.40
2022-07-30T13:31:51.113Z,1.20
2022-07-30T13:34:20.902Z,1.30
2022-07-30T13:36:48.122Z,1.45
2022-07-30T13:39:17.658Z,1.52
2022-07-30T13:41:47.051Z,1.45
2022-07-30T13:44:14.252Z,1.40
2022-07-30T13:46:43.775Z,1.33
2022-07-30T13:49:13.351Z,1.33
2022-07-30T13:51:45.543Z,1.52
2022-07-30T13:54:13.969Z,1.25
2022-07-30T13:56:43.342Z,2.22
2022-07-30T13:59:12.712Z,1.20
2022-07-30T14:01:40.018Z,2.17
2022-07-30T14:04:08.483Z,1.70
2022-07-30T14:06:35.750Z,1.50
2022-07-30T14:09:03.114Z,1.50
2022-07-30T14:11:31.610Z,1.40
2022-07-30T14:14:01.456Z,1.45
2022-07-30T14:16:46.816Z,1.70
2022-07-30T14:19:23.682Z,1.40
2022-07-30T14:21:54.994Z,1.60
2022-07-30T14:24:24.746Z,1.33
2022-07-30T14:26:56.006Z,1.30
2022-07-30T14:29:30.959Z,1.35
2022-07-30T14:31:58.123Z,1.48
2022-07-30T14:34:25.620Z,1.40
2022-07-30T14:36:52.842Z,1.75
2022-07-30T14:39:20.981Z,1.63
2022-07-30T14:41:55.589Z,1.50
2022-07-30T14:44:23.972Z,1.50
2022-07-30T14:46:56.039Z,1.77
2022-07-30T14:49:25.585Z,1.50
2022-07-30T14:51:53.271Z,1.42
2022-07-30T14:54:23.565Z,1.45
2022-07-30T14:56:58.062Z,1.60
2022-07-30T14:59:27.662Z,1.50
2022-07-30T15:01:58.295Z,1.50
2022-07-30T15:04:28.059Z,1.50
2022-07-30T15:06:55.253Z,1.40
2022-07-30T15:09:22.608Z,1.42
2022-07-30T15:12:08.450Z,1.48
2022-07-30T15:14:41.004Z,1.50
2022-07-30T15:17:08.528Z,1.40
2022-07-30T15:19:35.847Z,1.50
2022-07-30T15:22:10.325Z,1.30
2022-07-30T15:24:37.639Z,1.42
2022-07-30T15:27:04.893Z,1.40
2022-07-30T15:29:34.342Z,1.30
2022-07-30T15:32:04.225Z,1.48
2022-07-30T15:34:36.231Z,1.60
2022-07-30T15:37:06.421Z,1.52
2022-07-30T15:39:36.409Z,1.40
2022-07-30T15:42:05.951Z,1.42
2022-07-30T15:44:34.156Z,1.50
2022-07-30T15:47:10.270Z,1.20
2022-07-30T15:49:42.395Z,1.20
2022-07-30T15:52:11.578Z,1.30
2022-07-30T15:54:41.426Z,1.00
2022-07-30T15:57:08.621Z,1.50
2022-07-30T15:59:38.098Z,1.60
2022-07-30T16:02:08.203Z,1.30
2022-07-30T16:04:40.352Z,1.13
2022-07-30T16:07:08.442Z,2.03
2022-07-30T16:09:35.642Z,2.28
2022-07-30T16:12:07.204Z,1.30
2022-07-30T16:14:37.495Z,1.50
2022-07-30T16:17:05.154Z,3.08
2022-07-30T16:19:32.596Z,1.30
2022-07-30T16:22:00.222Z,1.30
2022-07-30T16:24:29.904Z,1.20
2022-07-30T16:26:57.312Z,1.40
2022-07-30T16:29:27.196Z,1.30
2022-07-30T16:31:56.703Z,3.47
2022-07-30T16:34:26.785Z,1.63
2022-07-30T16:36:56.276Z,2.50
2022-07-30T16:39:28.347Z,1.88
2022-07-30T16:41:57.854Z,1.38
2022-07-30T16:44:27.018Z,1.10
2022-07-30T16:46:54.213Z,1.13
2022-07-30T16:49:21.490Z,1.25
2022-07-30T16:51:48.788Z,1.25
2022-07-30T16:54:16.196Z,1.40
2022-07-30T16:56:43.470Z,1.13
2022-07-30T16:59:13.774Z,1.10
2022-07-30T17:01:41.225Z,1.10
2022-07-30T17:04:08.449Z,1.20
2022-07-30T17:06:36.373Z,1.50
2022-07-30T17:09:03.852Z,1.25
2022-07-30T17:11:45.914Z,1.30
2022-07-30T17:14:19.561Z,1.48
2022-07-30T17:16:46.740Z,1.23
2022-07-30T17:19:13.950Z,1.20
2022-07-30T17:21:43.762Z,1.25
2022-07-30T17:24:11.848Z,1.08
2022-07-30T17:26:42.813Z,1.30
2022-07-30T17:29:14.193Z,1.00
2022-07-30T17:31:44.298Z,1.42
2022-07-30T17:34:15.779Z,1.20
2022-07-30T17:36:51.758Z,1.30
2022-07-30T17:40:29.927Z,1.05
2022-07-30T17:42:13.839Z,1.63
2022-07-30T17:44:46.907Z,1.55
2022-07-30T17:47:16.236Z,2.08
2022-07-30T17:49:43.970Z,2.60
2022-07-30T17:52:13.397Z,1.58
2022-07-30T17:54:41.245Z,1.40
2022-07-30T17:57:10.867Z,1.15
2022-07-30T17:59:38.344Z,1.33
2022-07-30T18:02:06.341Z,1.55
2022-07-30T18:04:34.884Z,1.20
2022-07-30T18:07:04.748Z,1.30
2022-07-30T18:09:39.260Z,1.10
2022-07-30T18:12:09.996Z,0.93
2022-07-30T18:14:37.480Z,1.00
2022-07-30T18:17:05.410Z,1.10
2022-07-30T18:19:35.320Z,1.10
2022-07-30T18:22:06.629Z,1.40
2022-07-30T18:24:34.042Z,1.40
2022-07-30T18:27:11.584Z,1.30
2022-07-30T18:29:41.077Z,2.03
2022-07-30T18:32:10.890Z,2.10
2022-07-30T18:34:38.131Z,2.22
2022-07-30T18:37:05.466Z,1.73
2022-07-30T18:39:32.673Z,1.70
2022-07-30T18:42:00.534Z,1.70
2022-07-30T18:44:30.281Z,1.38
2022-07-30T18:46:57.456Z,1.33
2022-07-30T18:49:36.732Z,1.30
2022-07-30T18:52:06.316Z,1.52
2022-07-30T18:54:34.417Z,1.77
2022-07-30T18:57:04.245Z,1.30
2022-07-30T18:59:34.174Z,1.60
2022-07-30T19:02:07.011Z,1.60
2022-07-30T19:04:34.728Z,1.88
2022-07-30T19:07:05.210Z,2.03
2022-07-30T19:09:35.358Z,1.67
2022-07-30T19:12:05.608Z,1.60
2022-07-30T19:14:35.650Z,1.77
2022-07-30T19:17:13.625Z,1.52
2022-07-30T19:19:41.673Z,1.65
2022-07-30T19:22:11.507Z,1.50
2022-07-30T19:24:43.797Z,1.30
2022-07-30T19:27:14.107Z,1.50
2022-07-30T19:29:46.374Z,1.77
2022-07-30T19:32:13.663Z,1.77
2022-07-30T19:34:43.368Z,1.60
2022-07-30T19:37:10.961Z,1.80
2022-07-30T19:40:05.274Z,1.60
2022-07-30T19:42:30.549Z,2.10
2022-07-30T19:44:58.044Z,3.35
2022-07-30T19:47:39.405Z,3.55
2022-07-30T19:50:11.565Z,3.25
2022-07-30T19:52:40.582Z,3.20
2022-07-30T19:58:16.037Z,2.72
2022-07-30T20:00:50.208Z,2.50
2022-07-30T20:03:26.060Z,2.50
2022-07-30T20:06:03.800Z,2.30
2022-07-30T20:08:36.976Z,3.03
2022-07-30T20:11:10.223Z,2.05
2022-07-30T20:13:46.275Z,1.90
2022-07-30T20:16:15.447Z,2.00
2022-07-30T20:18:45.845Z,1.80
2022-07-30T20:21:16.605Z,1.70
2022-07-30T20:23:46.408Z,1.60
2022-07-30T20:26:16.152Z,1.80
2022-07-30T20:28:52.639Z,2.03
2022-07-30T20:31:20.471Z,1.70
2022-07-30T20:33:49.558Z,1.75
2022-07-30T20:36:18.778Z,1.83
2022-07-30T20:38:49.245Z,2.00
2022-07-30T20:41:16.723Z,2.00
2022-07-30T20:43:51.709Z,1.73
2022-07-30T20:46:23.125Z,2.40
2022-07-30T20:48:52.224Z,2.08
2022-07-30T20:51:20.130Z,1.98
2022-07-30T20:53:49.880Z,1.50
2022-07-30T20:56:19.380Z,1.83
2022-07-30T21:01:34.461Z,1.60
2022-07-30T21:04:02.867Z,2.00
2022-07-30T21:06:32.600Z,1.60
2022-07-30T21:09:04.598Z,2.50
2022-07-30T21:11:36.220Z,1.90
2022-07-30T21:14:08.779Z,1.85
2022-07-30T21:16:42.601Z,1.77
2022-07-30T21:19:16.494Z,1.77
2022-07-30T21:21:49.638Z,1.83
2022-07-30T21:24:19.792Z,1.98
2022-07-30T21:26:48.856Z,1.75
2022-07-30T21:29:17.056Z,1.88
2022-07-30T21:31:58.476Z,1.52
2022-07-30T21:34:36.057Z,2.03
2022-07-30T21:37:09.779Z,1.85
2022-07-30T21:39:41.802Z,1.67
2022-07-30T21:42:09.459Z,1.50
2022-07-30T21:44:39.377Z,1.90
2022-07-30T21:47:10.294Z,1.65
2022-07-30T21:49:39.561Z,1.60
2022-07-30T21:52:09.300Z,1.92
2022-07-30T21:54:48.035Z,1.83
2022-07-30T21:57:23.118Z,1.90
2022-07-30T21:59:56.689Z,1.98
2022-07-30T22:02:24.935Z,2.22
2022-07-30T22:04:55.148Z,1.90
2022-07-30T22:07:22.517Z,2.00
2022-07-30T22:09:52.111Z,2.15
2022-07-30T22:12:19.531Z,2.00
2022-07-30T22:18:00.806Z,1.67
2022-07-30T22:20:26.880Z,2.00
2022-07-30T22:22:56.122Z,2.10
2022-07-30T22:25:41.664Z,1.80
2022-07-30T22:28:18.022Z,1.98
2022-07-30T22:30:45.222Z,2.05
2022-07-30T22:33:18.808Z,1.63
2022-07-30T22:35:49.944Z,1.80
2022-07-30T22:38:20.278Z,1.60
2022-07-30T22:40:50.343Z,1.70
2022-07-30T22:43:17.521Z,2.10
2022-07-30T22:45:50.067Z,1.70
2022-07-30T22:48:25.344Z,1.63
2022-07-30T22:50:56.503Z,1.58
2022-07-30T22:54:03.588Z,1.33
2022-07-30T22:56:20.265Z,1.27
2022-07-30T22:58:51.293Z,1.13
2022-07-30T23:01:18.497Z,1.30
2022-07-30T23:06:35.121Z,1.55
2022-07-30T23:09:02.297Z,1.23
2022-07-30T23:11:37.169Z,1.17
2022-07-30T23:12:15.410Z,2.92
2022-07-30T23:12:26.632Z,1.80
2022-07-30T23:12:28.468Z,2.00
2022-07-30T23:12:34.042Z,2.08
2022-07-30T23:14:09.246Z,1.17
2022-07-30T23:16:37.578Z,1.42
2022-07-30T23:19:05.670Z,1.20
2022-07-30T23:21:34.811Z,1.13
2022-07-30T23:24:11.117Z,1.10
2022-07-30T23:26:38.754Z,1.20
2022-07-30T23:29:08.218Z,1.17
2022-07-30T23:31:41.038Z,1.10
2022-07-30T23:34:08.210Z,1.00
2022-07-30T23:36:38.046Z,1.13
2022-07-30T23:39:05.471Z,1.25
2022-07-30T23:41:34.979Z,0.98
2022-07-30T23:44:02.162Z,0.98
2022-07-30T23:46:29.550Z,1.10
2022-07-30T23:48:56.769Z,1.15
2022-07-30T23:51:26.315Z,1.20
2022-07-30T23:54:06.448Z,1.10
2022-07-30T23:56:33.625Z,1.15
2022-07-30T23:59:00.898Z,1.00
